createdAt,value
2018-07-20T00:00:21.150Z,99.90
2018-07-20T00:02:50.349Z,99.90
2018-07-20T00:05:18.684Z,99.90
2018-07-20T00:07:47.118Z,99.90
2018-07-20T00:10:15.875Z,99.90
2018-07-20T00:12:44.285Z,99.90
2018-07-20T00:15:13.370Z,99.90
2018-07-20T00:17:41.712Z,99.90
2018-07-20T00:20:10.232Z,99.90
2018-07-20T00:22:39.443Z,99.90
2018-07-20T00:25:07.944Z,99.90
2018-07-20T00:27:36.273Z,99.90
2018-07-20T00:30:05.384Z,99.90
2018-07-20T00:32:34.549Z,99.90
2018-07-20T00:35:03.474Z,99.90
2018-07-20T00:37:32.606Z,99.90
2018-07-20T00:40:00.943Z,99.90
2018-07-20T00:42:30.090Z,99.90
2018-07-20T00:44:58.472Z,99.90
2018-07-20T00:47:26.790Z,99.90
2018-07-20T00:49:55.246Z,99.90
2018-07-20T00:52:23.583Z,99.90
2018-07-20T00:54:51.907Z,99.90
2018-07-20T00:57:20.292Z,99.90
2018-07-20T00:59:48.618Z,99.90
2018-07-20T01:02:16.976Z,99.90
2018-07-20T01:04:46.194Z,99.90
2018-07-20T01:07:14.514Z,99.90
2018-07-20T01:09:42.906Z,99.90
2018-07-20T01:12:11.234Z,99.90
2018-07-20T01:14:39.580Z,99.90
2018-07-20T01:17:07.900Z,99.90
2018-07-20T01:19:36.279Z,99.90
2018-07-20T01:22:04.623Z,99.90
2018-07-20T01:24:32.924Z,99.90
2018-07-20T01:27:01.301Z,99.90
2018-07-20T01:29:29.633Z,99.90
2018-07-20T01:31:58.063Z,99.90
2018-07-20T01:34:26.391Z,99.90
2018-07-20T01:36:54.724Z,99.90
2018-07-20T01:39:23.069Z,99.90
2018-07-20T01:41:52.165Z,99.90
2018-07-20T01:44:21.368Z,99.90
2018-07-20T01:46:49.727Z,99.90
2018-07-20T01:49:18.085Z,99.90
2018-07-20T01:51:46.448Z,99.90
2018-07-20T01:54:14.775Z,99.90
2018-07-20T01:56:43.899Z,99.90
2018-07-20T01:59:12.230Z,99.90
2018-07-20T02:01:40.668Z,99.90
2018-07-20T02:04:08.982Z,99.90
2018-07-20T02:06:37.356Z,99.90
2018-07-20T02:09:05.672Z,99.90
2018-07-20T02:11:35.453Z,99.90
2018-07-20T02:14:03.781Z,99.90
2018-07-20T02:16:32.150Z,99.90
2018-07-20T02:19:00.624Z,99.90
2018-07-20T02:21:29.747Z,99.90
2018-07-20T02:23:58.038Z,99.90
2018-07-20T02:26:26.396Z,99.90
2018-07-20T02:28:54.815Z,99.90
2018-07-20T02:31:23.144Z,99.90
2018-07-20T02:33:51.491Z,99.90
2018-07-20T02:36:19.824Z,99.90
2018-07-20T02:38:48.164Z,99.90
2018-07-20T02:41:16.545Z,99.90
2018-07-20T02:43:44.824Z,99.90
2018-07-20T02:46:13.956Z,99.90
2018-07-20T02:48:42.286Z,99.90
2018-07-20T02:51:10.630Z,99.90
2018-07-20T02:53:38.974Z,99.90
2018-07-20T02:56:07.293Z,99.90
2018-07-20T02:58:35.761Z,99.90
2018-07-20T03:01:04.095Z,99.90
2018-07-20T03:03:33.208Z,99.90
2018-07-20T03:06:01.580Z,99.90
2018-07-20T03:08:29.906Z,99.90
2018-07-20T03:10:58.260Z,99.90
2018-07-20T03:13:26.592Z,99.90
2018-07-20T03:15:55.779Z,99.90
2018-07-20T03:18:24.111Z,99.90
2018-07-20T03:20:52.525Z,99.90
2018-07-20T03:23:21.014Z,99.90
2018-07-20T03:25:50.232Z,99.90
2018-07-20T03:28:19.346Z,99.90
2018-07-20T03:30:47.793Z,99.90
2018-07-20T03:33:16.140Z,99.90
2018-07-20T03:35:44.522Z,99.90
2018-07-20T03:38:12.847Z,99.90
2018-07-20T03:40:41.979Z,99.90
2018-07-20T03:43:10.537Z,99.90
2018-07-20T03:45:38.884Z,99.90
2018-07-20T03:48:07.329Z,99.90
2018-07-20T03:50:35.664Z,99.90
2018-07-20T03:53:04.762Z,99.90
2018-07-20T03:55:33.213Z,99.90
2018-07-20T03:58:01.576Z,99.90
2018-07-20T04:00:29.908Z,99.90
2018-07-20T04:02:59.001Z,99.90
2018-07-20T04:05:28.104Z,99.90
2018-07-20T04:07:57.287Z,99.90
2018-07-20T04:10:25.595Z,99.90
2018-07-20T04:12:53.950Z,99.90
2018-07-20T04:15:23.045Z,99.90
2018-07-20T04:17:51.378Z,99.90
2018-07-20T04:20:19.704Z,99.90
2018-07-20T04:22:48.798Z,99.90
2018-07-20T04:25:17.154Z,99.90
2018-07-20T04:27:45.482Z,99.90
2018-07-20T04:30:13.842Z,99.90
2018-07-20T04:32:42.936Z,99.90
2018-07-20T04:35:12.104Z,99.90
2018-07-20T04:37:40.427Z,99.90
2018-07-20T04:40:08.761Z,99.90
2018-07-20T04:42:37.126Z,99.90
2018-07-20T04:45:05.428Z,99.90
2018-07-20T04:47:34.542Z,99.90
2018-07-20T04:50:02.992Z,99.90
2018-07-20T04:52:31.277Z,99.90
2018-07-20T04:55:00.390Z,99.90
2018-07-20T04:57:29.516Z,99.90
2018-07-20T04:59:57.852Z,99.90
2018-07-20T05:02:26.938Z,99.90
2018-07-20T05:04:55.358Z,99.90
2018-07-20T05:07:24.502Z,99.90
2018-07-20T05:09:52.950Z,99.90
2018-07-20T05:12:21.364Z,99.90
2018-07-20T05:14:49.706Z,99.90
2018-07-20T05:17:18.048Z,99.90
2018-07-20T05:19:46.426Z,99.90
2018-07-20T05:22:14.806Z,99.90
2018-07-20T05:24:43.186Z,99.90
2018-07-20T05:27:12.168Z,99.90
2018-07-20T05:29:40.534Z,99.90
2018-07-20T05:32:08.900Z,99.90
2018-07-20T05:34:37.253Z,99.90
2018-07-20T05:37:05.839Z,99.90
2018-07-20T05:39:34.204Z,99.90
2018-07-20T05:42:02.608Z,99.90
2018-07-20T05:44:30.976Z,99.90
2018-07-20T05:46:59.310Z,99.90
2018-07-20T05:49:27.722Z,99.90
2018-07-20T05:51:56.094Z,99.90
2018-07-20T05:54:25.301Z,99.90
2018-07-20T05:56:53.704Z,99.90
2018-07-20T05:59:22.357Z,99.90
2018-07-20T06:01:51.360Z,99.90
2018-07-20T06:04:19.728Z,99.90
2018-07-20T06:06:49.008Z,99.90
2018-07-20T06:09:17.353Z,99.90
2018-07-20T06:11:45.689Z,99.90
2018-07-20T06:14:14.897Z,99.90
2018-07-20T06:16:43.992Z,99.90
2018-07-20T06:19:13.184Z,99.90
2018-07-20T06:21:41.810Z,99.90
2018-07-20T06:24:10.167Z,99.90
2018-07-20T06:26:38.489Z,99.90
2018-07-20T06:29:07.737Z,99.90
2018-07-20T06:31:37.506Z,99.90
2018-07-20T06:34:05.826Z,99.90
2018-07-20T06:36:34.164Z,99.90
2018-07-20T06:39:02.922Z,99.90
2018-07-20T06:41:31.248Z,99.90
2018-07-20T06:44:00.339Z,99.90
2018-07-20T06:46:28.678Z,99.90
2018-07-20T06:48:57.024Z,99.90
2018-07-20T06:51:25.379Z,99.90
2018-07-20T06:53:54.474Z,99.90
2018-07-20T06:56:23.592Z,99.90
2018-07-20T06:58:51.969Z,99.90
2018-07-20T07:01:20.416Z,99.90
2018-07-20T07:03:49.774Z,99.90
2018-07-20T07:06:18.138Z,99.90
2018-07-20T07:08:46.730Z,99.90
2018-07-20T07:11:15.093Z,99.90
2018-07-20T07:13:44.164Z,99.90
2018-07-20T07:16:12.508Z,99.90
2018-07-20T07:18:40.962Z,99.90
2018-07-20T07:21:09.316Z,99.90
2018-07-20T07:23:38.438Z,99.90
2018-07-20T07:26:06.823Z,99.90
2018-07-20T07:28:35.236Z,99.90
2018-07-20T07:31:03.580Z,99.90
2018-07-20T07:33:31.952Z,99.90
2018-07-20T07:36:00.275Z,99.90
2018-07-20T07:38:28.702Z,99.90
2018-07-20T07:40:57.032Z,99.90
2018-07-20T07:43:25.436Z,99.90
2018-07-20T07:45:53.758Z,99.90
2018-07-20T07:48:22.154Z,99.90
2018-07-20T07:50:50.973Z,99.90
2018-07-20T07:53:19.327Z,99.90
2018-07-20T07:55:47.673Z,99.90
2018-07-20T07:58:16.010Z,99.90
2018-07-20T08:00:44.360Z,99.40
2018-07-20T08:03:13.152Z,99.70
2018-07-20T08:05:41.377Z,99.90
2018-07-20T08:08:10.505Z,99.90
2018-07-20T08:10:39.867Z,99.90
2018-07-20T08:13:08.962Z,98.80
2018-07-20T08:15:38.072Z,98.20
2018-07-20T08:18:07.175Z,97.90
2018-07-20T08:20:35.494Z,97.90
2018-07-20T08:23:04.776Z,98.30
2018-07-20T08:25:33.155Z,98.00
2018-07-20T08:28:01.515Z,98.30
2018-07-20T08:30:29.856Z,98.10
2018-07-20T08:32:58.195Z,97.60
2018-07-20T08:35:26.531Z,97.50
2018-07-20T08:37:55.712Z,96.80
2018-07-20T08:40:24.263Z,96.70
2018-07-20T08:42:52.591Z,96.70
2018-07-20T08:45:21.702Z,95.70
2018-07-20T08:47:50.203Z,95.70
2018-07-20T08:50:18.909Z,95.70
2018-07-20T08:52:47.203Z,96.10
2018-07-20T08:55:15.768Z,95.70
2018-07-20T08:57:44.111Z,94.70
2018-07-20T09:00:13.189Z,94.90
2018-07-20T09:02:41.715Z,94.80
2018-07-20T09:05:10.900Z,95.20
2018-07-20T09:07:39.234Z,94.10
2018-07-20T09:10:07.657Z,93.80
2018-07-20T09:12:36.040Z,93.10
2018-07-20T09:15:05.367Z,93.40
2018-07-20T09:17:33.807Z,93.00
2018-07-20T09:20:02.898Z,94.90
2018-07-20T09:22:31.271Z,94.90
2018-07-20T09:25:00.394Z,92.70
2018-07-20T09:27:28.723Z,92.60
2018-07-20T09:29:57.159Z,91.80
2018-07-20T09:32:25.525Z,91.20
2018-07-20T09:34:53.915Z,92.20
2018-07-20T09:37:22.827Z,92.40
2018-07-20T09:39:51.153Z,93.70
2018-07-20T09:42:20.242Z,91.90
2018-07-20T09:44:48.646Z,91.90
2018-07-20T09:47:16.986Z,91.40
2018-07-20T09:49:45.417Z,91.70
2018-07-20T09:52:13.754Z,90.60
2018-07-20T09:54:42.092Z,90.00
2018-07-20T09:57:10.680Z,90.00
2018-07-20T09:59:39.068Z,90.10
2018-07-20T10:02:07.410Z,90.00
2018-07-20T10:04:35.807Z,90.90
2018-07-20T10:07:04.150Z,87.80
2018-07-20T10:09:33.380Z,88.10
2018-07-20T10:12:01.750Z,87.30
2018-07-20T10:14:30.156Z,90.50
2018-07-20T10:16:58.509Z,90.60
2018-07-20T10:19:26.887Z,87.00
2018-07-20T10:21:55.587Z,87.90
2018-07-20T10:24:23.947Z,83.80
2018-07-20T10:26:53.209Z,88.50
2018-07-20T10:29:21.642Z,87.50
2018-07-20T10:31:50.014Z,89.70
2018-07-20T10:34:18.486Z,83.80
2018-07-20T10:36:46.888Z,80.60
2018-07-20T10:39:16.033Z,83.30
2018-07-20T10:41:44.349Z,76.70
2018-07-20T10:44:12.723Z,76.90
2018-07-20T10:46:41.050Z,75.80
2018-07-20T10:49:09.822Z,78.20
2018-07-20T10:51:38.147Z,78.80
2018-07-20T10:54:06.954Z,79.80
2018-07-20T10:56:35.343Z,80.00
2018-07-20T10:59:03.727Z,72.50
2018-07-20T11:01:32.150Z,77.40
2018-07-20T11:04:00.485Z,73.70
2018-07-20T11:06:28.845Z,72.10
2018-07-20T11:08:57.241Z,74.00
2018-07-20T11:11:25.637Z,72.40
2018-07-20T11:13:54.020Z,71.70
2018-07-20T11:16:22.363Z,75.00
2018-07-20T11:18:50.688Z,72.30
2018-07-20T11:21:19.031Z,71.00
2018-07-20T11:23:48.334Z,68.40
2018-07-20T11:26:16.876Z,69.30
2018-07-20T11:28:45.329Z,69.80
2018-07-20T11:31:13.725Z,70.40
2018-07-20T11:33:43.051Z,68.90
2018-07-20T11:36:13.228Z,63.60
2018-07-20T11:38:41.591Z,63.60
2018-07-20T11:41:09.939Z,66.70
2018-07-20T11:43:39.121Z,66.10
2018-07-20T11:46:07.568Z,66.00
2018-07-20T11:48:35.877Z,63.60
2018-07-20T11:51:04.228Z,63.40
2018-07-20T11:53:32.641Z,63.60
2018-07-20T11:56:02.133Z,64.90
2018-07-20T11:58:30.465Z,61.50
2018-07-20T12:00:58.799Z,61.00
2018-07-20T12:03:27.205Z,59.00
2018-07-20T12:05:55.559Z,61.60
2018-07-20T12:08:23.988Z,61.70
2018-07-20T12:10:52.327Z,64.50
2018-07-20T12:13:21.441Z,62.40
2018-07-20T12:15:49.856Z,62.40
2018-07-20T12:18:18.271Z,59.70
2018-07-20T12:20:46.693Z,62.60
2018-07-20T12:23:15.050Z,59.40
2018-07-20T12:25:44.170Z,58.00
2018-07-20T12:28:12.587Z,58.00
2018-07-20T12:30:41.626Z,59.30
2018-07-20T12:33:10.751Z,60.40
2018-07-20T12:35:39.083Z,59.60
2018-07-20T12:38:08.184Z,64.10
2018-07-20T12:40:36.743Z,63.00
2018-07-20T12:43:05.137Z,63.50
2018-07-20T12:45:34.381Z,67.40
2018-07-20T12:48:02.718Z,63.40
2018-07-20T12:50:31.893Z,63.10
2018-07-20T12:53:00.231Z,63.10
2018-07-20T12:55:28.738Z,59.00
2018-07-20T12:57:57.120Z,58.30
2018-07-20T13:00:25.467Z,57.20
2018-07-20T13:02:53.841Z,56.70
2018-07-20T13:05:22.297Z,56.70
2018-07-20T13:07:51.424Z,54.70
2018-07-20T13:10:19.784Z,54.50
2018-07-20T13:12:49.006Z,54.70
2018-07-20T13:15:17.353Z,54.50
2018-07-20T13:17:45.712Z,54.20
2018-07-20T13:20:14.056Z,51.80
2018-07-20T13:22:42.427Z,54.10
2018-07-20T13:25:11.757Z,51.30
2018-07-20T13:27:40.098Z,50.20
2018-07-20T13:30:09.244Z,54.80
2018-07-20T13:32:37.686Z,51.50
2018-07-20T13:35:06.042Z,54.80
2018-07-20T13:37:34.680Z,53.90
2018-07-20T13:40:03.043Z,53.30
2018-07-20T13:42:32.575Z,56.30
2018-07-20T13:45:00.997Z,56.30
2018-07-20T13:47:29.601Z,57.10
2018-07-20T13:49:58.804Z,54.80
2018-07-20T13:52:27.133Z,54.80
2018-07-20T13:54:55.561Z,55.60
2018-07-20T13:57:24.758Z,56.10
2018-07-20T13:59:53.224Z,55.50
2018-07-20T14:02:21.535Z,55.10
2018-07-20T14:04:49.914Z,54.70
2018-07-20T14:07:18.270Z,56.40
2018-07-20T14:09:46.642Z,55.40
2018-07-20T14:12:15.229Z,53.40
2018-07-20T14:14:43.650Z,53.70
2018-07-20T14:17:12.092Z,53.30
2018-07-20T14:19:40.451Z,50.30
2018-07-20T14:22:09.552Z,52.70
2018-07-20T14:24:38.047Z,52.60
2018-07-20T14:27:06.428Z,49.90
2018-07-20T14:29:35.498Z,52.50
2018-07-20T14:32:04.618Z,49.40
2018-07-20T14:34:33.692Z,52.90
2018-07-20T14:37:02.820Z,50.90
2018-07-20T14:39:31.210Z,50.30
2018-07-20T14:41:59.655Z,50.10
2018-07-20T14:44:28.753Z,51.90
2018-07-20T14:46:57.946Z,51.10
2018-07-20T14:49:27.066Z,52.60
2018-07-20T14:51:55.456Z,52.60
2018-07-20T14:54:23.791Z,53.40
2018-07-20T14:56:52.133Z,53.40
2018-07-20T14:59:20.472Z,53.10
2018-07-20T15:01:48.957Z,52.80
2018-07-20T15:04:17.314Z,51.60
2018-07-20T15:06:46.476Z,52.90
2018-07-20T15:09:14.796Z,52.90
2018-07-20T15:11:43.988Z,53.50
2018-07-20T15:14:12.425Z,53.50
2018-07-20T15:16:40.793Z,53.60
2018-07-20T15:19:09.161Z,50.90
2018-07-20T15:21:38.131Z,49.80
2018-07-20T15:24:07.220Z,48.30
2018-07-20T15:26:35.574Z,48.30
2018-07-20T15:29:03.996Z,47.60
2018-07-20T15:31:32.378Z,49.00
2018-07-20T15:34:00.721Z,47.80
2018-07-20T15:36:29.191Z,48.10
2018-07-20T15:38:57.601Z,47.20
2018-07-20T15:41:26.684Z,47.70
2018-07-20T15:43:55.171Z,47.60
2018-07-20T15:46:23.599Z,48.20
2018-07-20T15:48:51.814Z,48.70
2018-07-20T15:51:20.278Z,47.80
2018-07-20T15:53:49.078Z,47.80
2018-07-20T15:56:17.483Z,49.90
2018-07-20T15:58:46.565Z,50.30
2018-07-20T16:01:14.909Z,50.10
2018-07-20T16:03:43.286Z,50.70
2018-07-20T16:06:11.629Z,49.60
2018-07-20T16:08:40.741Z,50.40
2018-07-20T16:11:09.208Z,50.40
2018-07-20T16:13:37.774Z,52.70
2018-07-20T16:16:06.108Z,52.70
2018-07-20T16:18:34.450Z,52.60
2018-07-20T16:21:03.894Z,52.50
2018-07-20T16:23:32.326Z,52.50
2018-07-20T16:26:01.555Z,52.60
2018-07-20T16:28:29.828Z,52.50
2018-07-20T16:30:58.148Z,49.90
2018-07-20T16:33:26.605Z,49.70
2018-07-20T16:35:54.981Z,49.40
2018-07-20T16:38:24.149Z,51.20
2018-07-20T16:40:53.348Z,50.90
2018-07-20T16:43:21.748Z,50.90
2018-07-20T16:45:50.113Z,50.20
2018-07-20T16:48:18.437Z,50.90
2018-07-20T16:50:46.798Z,48.80
2018-07-20T16:53:15.384Z,48.80
2018-07-20T16:55:43.751Z,49.20
2018-07-20T16:58:12.143Z,49.80
2018-07-20T17:00:40.700Z,51.00
2018-07-20T17:03:09.075Z,49.90
2018-07-20T17:05:37.410Z,50.30
2018-07-20T17:08:05.852Z,49.50
2018-07-20T17:10:34.455Z,48.00
2018-07-20T17:13:02.895Z,47.60
2018-07-20T17:15:31.293Z,48.30
2018-07-20T17:17:59.663Z,49.00
2018-07-20T17:20:28.072Z,49.50
2018-07-20T17:22:56.590Z,49.30
2018-07-20T17:25:24.931Z,50.30
2018-07-20T17:27:53.312Z,48.80
2018-07-20T17:30:21.797Z,49.30
2018-07-20T17:32:50.141Z,49.40
2018-07-20T17:35:18.477Z,50.00
2018-07-20T17:37:46.898Z,51.10
2018-07-20T17:40:15.292Z,50.00
2018-07-20T17:42:43.653Z,50.90
2018-07-20T17:45:12.050Z,51.00
2018-07-20T17:47:40.367Z,51.50
2018-07-20T17:50:08.799Z,53.20
2018-07-20T17:52:37.204Z,53.80
2018-07-20T17:55:05.543Z,53.90
2018-07-20T17:57:33.888Z,54.40
2018-07-20T18:00:02.317Z,54.10
2018-07-20T18:02:30.651Z,54.20
2018-07-20T18:04:59.655Z,53.80
2018-07-20T18:07:28.002Z,55.00
2018-07-20T18:09:56.455Z,55.30
2018-07-20T18:12:24.829Z,54.80
2018-07-20T18:14:53.197Z,54.20
2018-07-20T18:17:21.576Z,54.00
2018-07-20T18:19:49.951Z,53.90
2018-07-20T18:22:18.309Z,53.60
2018-07-20T18:24:46.719Z,53.20
2018-07-20T18:27:15.194Z,53.00
2018-07-20T18:29:43.399Z,53.80
2018-07-20T18:32:11.763Z,53.90
2018-07-20T18:34:40.133Z,53.80
2018-07-20T18:37:08.539Z,53.30
2018-07-20T18:39:36.976Z,53.30
2018-07-20T18:42:05.519Z,53.20
2018-07-20T18:44:33.857Z,53.50
2018-07-20T18:47:02.189Z,54.60
2018-07-20T18:49:30.624Z,55.50
2018-07-20T18:51:58.991Z,55.70
2018-07-20T18:54:28.307Z,56.80
2018-07-20T18:56:56.635Z,56.70
2018-07-20T18:59:25.949Z,58.10
2018-07-20T19:01:55.080Z,58.10
2018-07-20T19:04:23.482Z,58.00
2018-07-20T19:06:51.794Z,57.80
2018-07-20T19:09:20.240Z,59.20
2018-07-20T19:11:48.706Z,59.60
2018-07-20T19:14:17.128Z,60.40
2018-07-20T19:16:45.488Z,60.90
2018-07-20T19:19:13.918Z,61.40
2018-07-20T19:21:43.037Z,62.80
2018-07-20T19:24:11.423Z,62.80
2018-07-20T19:26:39.765Z,63.30
2018-07-20T19:29:08.887Z,64.20
2018-07-20T19:31:37.282Z,64.10
2018-07-20T19:34:05.765Z,64.60
2018-07-20T19:36:34.142Z,64.30
2018-07-20T19:39:02.475Z,65.30
2018-07-20T19:41:30.911Z,65.80
2018-07-20T19:43:59.243Z,65.40
2018-07-20T19:46:28.701Z,67.50
2018-07-20T19:48:57.107Z,67.40
2018-07-20T19:51:25.423Z,67.20
2018-07-20T19:53:53.751Z,67.60
2018-07-20T19:56:22.111Z,67.50
2018-07-20T19:58:50.728Z,67.10
2018-07-20T20:01:19.902Z,68.30
2018-07-20T20:03:48.367Z,68.20
2018-07-20T20:06:16.737Z,69.00
2018-07-20T20:08:45.135Z,69.50
2018-07-20T20:11:13.845Z,70.00
2018-07-20T20:13:42.178Z,70.20
2018-07-20T20:16:10.535Z,70.80
2018-07-20T20:18:39.656Z,70.70
2018-07-20T20:21:08.007Z,70.60
2018-07-20T20:23:37.169Z,72.10
2018-07-20T20:26:05.607Z,72.10
2018-07-20T20:28:33.987Z,72.00
2018-07-20T20:31:02.372Z,71.80
2018-07-20T20:33:30.783Z,71.70
2018-07-20T20:35:59.289Z,71.80
2018-07-20T20:38:27.633Z,72.10
2018-07-20T20:40:55.977Z,72.30
2018-07-20T20:43:25.362Z,72.70
2018-07-20T20:45:54.477Z,73.80
2018-07-20T20:48:22.811Z,73.70
2018-07-20T20:50:51.574Z,74.10
2018-07-20T20:53:20.014Z,74.00
2018-07-20T20:55:49.128Z,74.70
2018-07-20T20:58:17.512Z,74.60
2018-07-20T21:00:45.879Z,74.70
2018-07-20T21:03:14.261Z,75.00
2018-07-20T21:05:43.191Z,74.80
2018-07-20T21:08:11.592Z,75.10
2018-07-20T21:10:39.886Z,75.40
2018-07-20T21:13:09.017Z,75.10
2018-07-20T21:15:37.429Z,75.40
2018-07-20T21:18:05.994Z,75.70
2018-07-20T21:20:34.500Z,76.30
2018-07-20T21:23:02.803Z,76.70
2018-07-20T21:25:31.953Z,78.40
2018-07-20T21:28:00.308Z,77.90
2018-07-20T21:30:28.645Z,78.10
2018-07-20T21:32:57.074Z,78.10
2018-07-20T21:35:25.537Z,78.10
2018-07-20T21:37:53.857Z,78.40
2018-07-20T21:40:22.521Z,78.80
2018-07-20T21:42:50.879Z,79.00
2018-07-20T21:45:19.351Z,79.30
2018-07-20T21:47:47.915Z,79.30
2018-07-20T21:50:16.331Z,79.10
2018-07-20T21:52:45.269Z,78.60
2018-07-20T21:55:13.713Z,78.50
2018-07-20T21:57:42.078Z,78.80
2018-07-20T22:00:10.576Z,78.70
2018-07-20T22:02:38.938Z,79.20
2018-07-20T22:05:08.056Z,78.40
2018-07-20T22:07:36.425Z,78.40
2018-07-20T22:10:04.779Z,78.30
2018-07-20T22:12:33.185Z,78.10
2018-07-20T22:15:01.697Z,77.60
2018-07-20T22:17:30.014Z,77.60
2018-07-20T22:19:58.518Z,77.60
2018-07-20T22:22:28.356Z,77.30
2018-07-20T22:24:56.884Z,77.30
2018-07-20T22:27:25.388Z,77.40
2018-07-20T22:29:54.497Z,77.10
2018-07-20T22:32:22.828Z,77.10
2018-07-20T22:34:51.164Z,78.20
2018-07-20T22:37:19.541Z,77.40
2018-07-20T22:39:47.872Z,77.30
2018-07-20T22:42:16.216Z,77.40
2018-07-20T22:44:44.668Z,77.40
2018-07-20T22:47:13.000Z,77.30
2018-07-20T22:49:41.455Z,77.30
2018-07-20T22:52:09.833Z,77.10
2018-07-20T22:54:38.413Z,77.10
2018-07-20T22:57:06.779Z,77.20
2018-07-20T22:59:35.528Z,77.10
2018-07-20T23:02:03.855Z,77.00
2018-07-20T23:04:32.305Z,77.10
2018-07-20T23:07:00.686Z,77.20
2018-07-20T23:09:29.939Z,77.40
2018-07-20T23:11:58.894Z,77.20
2018-07-20T23:14:27.276Z,76.90
2018-07-20T23:16:55.607Z,76.90
2018-07-20T23:19:24.659Z,77.40
2018-07-20T23:21:53.050Z,77.10
2018-07-20T23:24:21.382Z,77.20
2018-07-20T23:26:50.474Z,76.60
2018-07-20T23:29:18.866Z,77.00
2018-07-20T23:31:48.186Z,77.20
2018-07-20T23:34:17.376Z,76.90
2018-07-20T23:36:45.857Z,76.80
2018-07-20T23:39:14.192Z,76.80
2018-07-20T23:41:42.636Z,76.60
2018-07-20T23:44:10.979Z,76.90
2018-07-20T23:46:39.309Z,76.70
2018-07-20T23:49:07.671Z,76.50
2018-07-20T23:51:36.011Z,76.50
2018-07-20T23:54:04.345Z,76.50
2018-07-20T23:56:32.703Z,76.80
2018-07-20T23:59:01.031Z,75.90
